createdAt,value
2018-08-18T00:02:37.086Z,14.80
2018-08-18T00:06:40.209Z,14.80
2018-08-18T00:10:43.293Z,14.70
2018-08-18T00:14:46.512Z,14.80
2018-08-18T00:18:49.586Z,14.80
2018-08-18T00:22:52.708Z,14.80
2018-08-18T00:26:55.788Z,14.90
2018-08-18T00:30:58.913Z,14.80
2018-08-18T00:35:02.008Z,14.80
2018-08-18T00:39:08.376Z,14.70
2018-08-18T00:43:11.600Z,14.70
2018-08-18T00:47:14.708Z,14.70
2018-08-18T00:51:18.088Z,14.70
2018-08-18T00:55:21.192Z,14.60
2018-08-18T00:59:35.536Z,14.50
2018-08-18T01:03:44.257Z,14.50
2018-08-18T01:07:47.335Z,14.50
2018-08-18T01:11:50.476Z,14.40
2018-08-18T01:15:53.547Z,14.40
2018-08-18T01:19:57.919Z,14.40
2018-08-18T01:24:00.997Z,14.50
2018-08-18T01:28:04.220Z,14.50
2018-08-18T01:32:07.296Z,14.40
2018-08-18T01:36:10.415Z,14.40
2018-08-18T01:40:13.500Z,14.30
2018-08-18T01:44:24.988Z,14.40
2018-08-18T01:48:28.067Z,14.40
2018-08-18T01:52:31.760Z,14.50
2018-08-18T01:56:34.867Z,14.50
2018-08-18T02:00:38.056Z,14.50
2018-08-18T02:04:41.471Z,14.60
2018-08-18T02:08:56.612Z,14.60
2018-08-18T02:13:04.453Z,14.60
2018-08-18T02:17:29.696Z,14.60
2018-08-18T02:21:34.983Z,14.70
2018-08-18T02:25:38.151Z,14.70
2018-08-18T02:29:41.248Z,14.70
2018-08-18T02:33:44.444Z,14.70
2018-08-18T02:37:47.519Z,14.70
2018-08-18T02:41:58.311Z,14.70
2018-08-18T02:46:14.993Z,14.70
2018-08-18T02:50:18.185Z,14.70
2018-08-18T02:54:21.789Z,14.70
2018-08-18T02:58:25.001Z,14.70
2018-08-18T03:02:28.081Z,14.70
2018-08-18T03:06:31.208Z,14.80
2018-08-18T03:10:34.828Z,14.70
2018-08-18T03:14:39.162Z,14.70
2018-08-18T03:18:43.260Z,14.70
2018-08-18T03:22:46.456Z,14.70
2018-08-18T03:26:53.563Z,14.60
2018-08-18T03:30:57.387Z,14.70
2018-08-18T03:35:00.460Z,14.60
2018-08-18T03:39:04.836Z,14.60
2018-08-18T03:43:07.916Z,14.60
2018-08-18T03:47:11.041Z,14.60
2018-08-18T03:51:14.113Z,14.60
2018-08-18T03:55:17.508Z,14.70
2018-08-18T03:59:20.624Z,14.60
2018-08-18T04:03:23.729Z,14.60
2018-08-18T04:07:26.803Z,14.60
2018-08-18T04:11:29.904Z,14.60
2018-08-18T04:15:32.980Z,14.60
2018-08-18T04:19:36.196Z,14.60
2018-08-18T04:23:39.295Z,14.60
2018-08-18T04:27:43.875Z,14.60
2018-08-18T04:31:46.959Z,14.50
2018-08-18T04:35:54.764Z,14.60
2018-08-18T04:39:57.891Z,14.70
2018-08-18T04:44:01.032Z,14.70
2018-08-18T04:48:04.112Z,14.70
2018-08-18T04:52:07.239Z,14.80
2018-08-18T04:56:10.467Z,14.80
2018-08-18T05:00:14.430Z,14.80
2018-08-18T05:04:17.508Z,14.80
2018-08-18T05:08:20.733Z,14.90
2018-08-18T05:12:23.815Z,14.90
2018-08-18T05:16:27.152Z,15.00
2018-08-18T05:20:30.228Z,15.00
2018-08-18T05:24:33.436Z,15.00
2018-08-18T05:28:36.527Z,15.10
2018-08-18T05:32:39.740Z,15.10
2018-08-18T05:36:43.399Z,15.10
2018-08-18T05:40:46.627Z,15.10
2018-08-18T05:44:49.906Z,15.20
2018-08-18T05:48:53.999Z,15.30
2018-08-18T05:53:12.636Z,15.40
2018-08-18T05:57:15.893Z,15.50
2018-08-18T06:01:32.056Z,15.40
2018-08-18T06:05:35.157Z,15.50
2018-08-18T06:09:38.237Z,15.70
2018-08-18T06:13:41.360Z,15.80
2018-08-18T06:17:44.437Z,15.80
2018-08-18T06:21:47.578Z,15.90
2018-08-18T06:25:50.657Z,16.10
2018-08-18T06:29:53.780Z,16.20
2018-08-18T06:33:56.952Z,16.20
2018-08-18T06:38:00.881Z,16.30
2018-08-18T06:42:03.964Z,16.40
2018-08-18T06:46:07.157Z,16.50
2018-08-18T06:50:12.413Z,16.70
2018-08-18T06:54:15.589Z,16.70
2018-08-18T06:58:18.829Z,16.90
2018-08-18T07:02:24.879Z,17.00
2018-08-18T07:06:27.964Z,17.40
2018-08-18T07:10:32.855Z,17.30
2018-08-18T07:14:35.928Z,17.50
2018-08-18T07:18:39.189Z,17.60
2018-08-18T07:22:42.485Z,17.80
2018-08-18T07:26:45.701Z,18.00
2018-08-18T07:30:48.884Z,18.20
2018-08-18T07:34:52.090Z,18.30
2018-08-18T07:38:55.198Z,18.40
2018-08-18T07:43:02.360Z,18.50
2018-08-18T07:47:05.552Z,18.60
2018-08-18T07:51:08.772Z,18.70
2018-08-18T07:55:11.840Z,18.90
2018-08-18T07:59:15.172Z,19.00
2018-08-18T08:03:18.805Z,19.30
2018-08-18T08:07:22.012Z,19.40
2018-08-18T08:11:25.089Z,19.70
2018-08-18T08:15:28.304Z,19.90
2018-08-18T08:19:31.384Z,20.00
2018-08-18T08:23:34.533Z,20.20
2018-08-18T08:27:37.695Z,20.40
2018-08-18T08:31:41.565Z,20.50
2018-08-18T08:35:44.679Z,20.40
2018-08-18T08:39:47.812Z,20.50
2018-08-18T08:43:50.915Z,20.60
2018-08-18T08:47:54.913Z,20.80
2018-08-18T08:51:58.085Z,21.00
2018-08-18T08:56:01.217Z,21.00
2018-08-18T09:00:05.329Z,20.80
2018-08-18T09:04:08.561Z,20.90
2018-08-18T09:08:11.639Z,21.00
2018-08-18T09:12:14.787Z,21.20
2018-08-18T09:16:17.885Z,21.30
2018-08-18T09:24:45.588Z,21.60
2018-08-18T09:28:48.683Z,21.70
2018-08-18T09:32:53.015Z,21.80
2018-08-18T09:36:56.145Z,21.80
2018-08-18T09:40:59.353Z,22.10
2018-08-18T09:45:02.484Z,22.10
2018-08-18T09:49:05.677Z,22.20
2018-08-18T09:53:08.792Z,22.40
2018-08-18T09:57:11.997Z,22.30
2018-08-18T10:01:15.205Z,22.10
2018-08-18T10:05:18.417Z,22.20
2018-08-18T10:09:21.535Z,22.30
2018-08-18T10:13:24.744Z,22.50
2018-08-18T10:17:27.845Z,22.20
2018-08-18T10:21:30.972Z,21.70
2018-08-18T10:25:34.061Z,21.60
2018-08-18T10:29:37.411Z,21.60
2018-08-18T10:33:40.495Z,21.60
2018-08-18T10:37:43.703Z,21.50
2018-08-18T10:41:58.721Z,21.20
2018-08-18T10:46:01.822Z,21.10
2018-08-18T10:50:15.265Z,21.20
2018-08-18T10:54:18.399Z,21.40
2018-08-18T10:58:33.562Z,21.40
2018-08-18T11:02:37.161Z,21.50
2018-08-18T11:06:40.239Z,21.70
2018-08-18T11:10:43.471Z,21.80
2018-08-18T11:14:50.804Z,21.80
2018-08-18T11:18:53.937Z,21.90
2018-08-18T11:23:06.853Z,21.90
2018-08-18T11:27:09.968Z,21.80
2018-08-18T11:31:13.057Z,21.90
2018-08-18T11:35:17.270Z,22.00
2018-08-18T11:39:21.213Z,22.00
2018-08-18T11:43:24.432Z,21.80
2018-08-18T11:47:29.680Z,21.60
2018-08-18T11:51:37.072Z,21.40
2018-08-18T11:55:40.341Z,21.50
2018-08-18T11:59:43.505Z,21.50
2018-08-18T12:03:46.745Z,21.50
2018-08-18T12:07:50.173Z,21.70
2018-08-18T12:11:53.269Z,21.80
2018-08-18T12:16:02.685Z,22.40
2018-08-18T12:20:05.892Z,23.10
2018-08-18T12:24:09.016Z,23.20
2018-08-18T12:28:12.450Z,23.20
2018-08-18T12:32:21.028Z,22.90
2018-08-18T12:36:24.519Z,22.60
2018-08-18T12:40:27.756Z,22.40
2018-08-18T12:44:34.185Z,22.30
2018-08-18T12:48:38.965Z,22.10
2018-08-18T12:52:47.494Z,22.00
2018-08-18T12:56:50.744Z,22.10
2018-08-18T13:00:53.825Z,22.20
2018-08-18T13:04:57.376Z,22.10
2018-08-18T13:09:00.609Z,22.00
2018-08-18T13:13:03.811Z,21.90
2018-08-18T13:17:06.921Z,21.70
2018-08-18T13:21:10.150Z,21.50
2018-08-18T13:25:13.343Z,21.40
2018-08-18T13:29:16.564Z,21.40
2018-08-18T13:33:19.700Z,21.40
2018-08-18T13:37:22.971Z,21.60
2018-08-18T13:41:26.052Z,21.70
2018-08-18T13:45:39.188Z,21.70
2018-08-18T13:49:42.292Z,21.60
2018-08-18T13:53:51.108Z,21.60
2018-08-18T13:57:54.200Z,21.60
2018-08-18T14:01:57.436Z,21.60
2018-08-18T14:06:00.788Z,21.60
2018-08-18T14:10:04.383Z,21.60
2018-08-18T14:14:07.885Z,21.60
2018-08-18T14:18:11.934Z,21.50
2018-08-18T14:22:18.104Z,21.40
2018-08-18T14:26:21.232Z,21.30
2018-08-18T14:30:24.312Z,21.30
2018-08-18T14:34:27.674Z,21.30
2018-08-18T14:38:30.720Z,21.50
2018-08-18T14:42:34.120Z,21.70
2018-08-18T14:46:37.366Z,21.70
2018-08-18T14:50:40.380Z,21.70
2018-08-18T14:54:43.469Z,21.80
2018-08-18T14:58:46.765Z,21.80
2018-08-18T15:02:49.765Z,21.80
2018-08-18T15:06:52.911Z,21.60
2018-08-18T15:10:56.028Z,21.50
2018-08-18T15:14:59.981Z,21.40
2018-08-18T15:19:03.080Z,21.20
2018-08-18T15:23:07.028Z,21.10
2018-08-18T15:27:10.123Z,21.00
2018-08-18T15:31:13.359Z,20.90
2018-08-18T15:35:16.473Z,20.80
2018-08-18T15:39:19.601Z,20.90
2018-08-18T15:43:22.806Z,20.90
2018-08-18T15:47:26.960Z,21.00
2018-08-18T15:51:30.036Z,21.10
2018-08-18T15:55:33.175Z,21.10
2018-08-18T15:59:36.255Z,21.10
2018-08-18T16:03:39.383Z,21.20
2018-08-18T16:07:42.462Z,21.10
2018-08-18T16:11:45.600Z,21.00
2018-08-18T16:15:48.685Z,21.00
2018-08-18T16:19:51.812Z,20.80
2018-08-18T16:23:54.975Z,20.70
2018-08-18T16:27:58.032Z,20.70
2018-08-18T16:32:15.853Z,20.70
2018-08-18T16:36:18.940Z,20.80
2018-08-18T16:40:22.224Z,20.80
2018-08-18T16:44:25.340Z,20.90
2018-08-18T16:48:28.462Z,20.90
2018-08-18T16:52:31.559Z,21.00
2018-08-18T16:56:34.957Z,21.10
2018-08-18T17:00:54.948Z,21.10
2018-08-18T17:04:58.332Z,20.90
2018-08-18T17:09:01.577Z,20.80
2018-08-18T17:13:04.686Z,20.80
2018-08-18T17:17:08.237Z,20.70
2018-08-18T17:21:13.161Z,20.60
2018-08-18T17:25:16.372Z,20.60
2018-08-18T17:29:19.457Z,20.60
2018-08-18T17:33:24.395Z,20.60
2018-08-18T17:37:27.492Z,20.60
2018-08-18T17:41:30.622Z,20.60
2018-08-18T17:45:39.731Z,20.60
2018-08-18T17:50:01.812Z,20.50
2018-08-18T17:54:04.928Z,20.50
2018-08-18T18:02:18.037Z,20.30
2018-08-18T18:06:22.389Z,20.20
2018-08-18T18:10:27.276Z,20.30
2018-08-18T18:14:30.374Z,20.20
2018-08-18T18:18:45.985Z,20.20
2018-08-18T18:22:49.688Z,20.20
2018-08-18T18:26:52.900Z,20.20
2018-08-18T18:30:55.980Z,20.30
2018-08-18T18:34:59.125Z,20.30
2018-08-18T18:39:02.377Z,20.20
2018-08-18T18:43:05.504Z,20.20
2018-08-18T18:47:08.588Z,20.10
2018-08-18T18:51:11.757Z,20.10
2018-08-18T18:55:15.027Z,20.00
2018-08-18T18:59:18.235Z,19.90
2018-08-18T19:03:21.995Z,19.90
2018-08-18T19:07:25.112Z,19.80
2018-08-18T19:11:28.511Z,19.70
2018-08-18T19:15:31.671Z,19.70
2018-08-18T19:19:34.896Z,19.60
2018-08-18T19:23:38.025Z,19.60
2018-08-18T19:27:41.121Z,19.50
2018-08-18T19:31:44.235Z,19.40
2018-08-18T19:35:48.559Z,19.40
2018-08-18T19:39:51.696Z,19.30
2018-08-18T19:43:54.792Z,19.20
2018-08-18T19:47:57.933Z,19.10
2018-08-18T19:52:05.280Z,19.00
2018-08-18T19:56:10.355Z,18.90
2018-08-18T20:00:18.670Z,18.90
2018-08-18T20:04:21.831Z,18.80
2018-08-18T20:08:26.232Z,18.70
2018-08-18T20:12:29.352Z,18.60
2018-08-18T20:16:32.448Z,18.50
2018-08-18T20:20:35.732Z,18.40
2018-08-18T20:24:38.822Z,18.30
2018-08-18T20:28:42.021Z,18.20
2018-08-18T20:32:45.116Z,18.10
2018-08-18T20:36:48.245Z,18.10
2018-08-18T20:40:51.340Z,18.10
2018-08-18T20:44:56.960Z,18.00
2018-08-18T20:49:00.158Z,18.00
2018-08-18T20:53:08.711Z,18.00
2018-08-18T20:57:11.854Z,17.90
2018-08-18T21:01:15.088Z,17.90
2018-08-18T21:05:18.197Z,17.80
2018-08-18T21:09:28.079Z,17.80
2018-08-18T21:13:31.253Z,17.70
2018-08-18T21:17:34.303Z,17.70
2018-08-18T21:21:37.594Z,17.60
2018-08-18T21:25:49.232Z,17.60
2018-08-18T21:29:53.143Z,17.50
2018-08-18T21:33:57.200Z,17.50
2018-08-18T21:38:00.304Z,17.50
2018-08-18T21:42:03.692Z,17.40
2018-08-18T21:46:06.809Z,17.40
2018-08-18T21:50:09.947Z,17.40
2018-08-18T21:54:13.047Z,17.50
2018-08-18T21:58:16.249Z,17.60
2018-08-18T22:02:30.960Z,17.60
2018-08-18T22:06:34.081Z,17.60
2018-08-18T22:10:37.311Z,17.60
2018-08-18T22:14:40.556Z,17.50
2018-08-18T22:18:51.947Z,17.50
2018-08-18T22:22:55.272Z,17.50
2018-08-18T22:26:58.374Z,17.60
2018-08-18T22:31:01.502Z,17.60
2018-08-18T22:35:04.614Z,17.70
2018-08-18T22:39:10.084Z,17.80
2018-08-18T22:43:13.205Z,17.80
2018-08-18T22:47:16.445Z,17.90
2018-08-18T22:51:19.566Z,17.90
2018-08-18T22:55:23.347Z,18.00
2018-08-18T22:59:26.441Z,18.00
2018-08-18T23:03:29.740Z,18.00
2018-08-18T23:07:32.905Z,18.10
2018-08-18T23:11:36.128Z,18.00
2018-08-18T23:15:39.216Z,18.00
2018-08-18T23:19:42.468Z,18.10
2018-08-18T23:23:45.708Z,18.10
2018-08-18T23:27:48.832Z,18.10
2018-08-18T23:31:51.913Z,18.10
2018-08-18T23:35:55.080Z,18.10
2018-08-18T23:39:58.311Z,18.10
2018-08-18T23:44:01.448Z,18.10
2018-08-18T23:48:05.940Z,18.00
2018-08-18T23:52:09.164Z,18.00
2018-08-18T23:56:12.264Z,18.10
